KTOC

Toccoa Rg Letourneau Field Airport

Toccoa, Georgia, USA
METAR KTOC 210435Z AUTO 31003KT 10SM CLR 12/07 A3022 RMK AO2 T01220065
Observed Flight Rules
Jan-21 @ 04:35 UTC (16 minutes ago) Visual Flight Rules
Wind Visibility Clouds
310° at 3 knots 10 miles
  • Clear skies
Temperatures Readings
Current 12°C / 54°F
Dewpoint 7°C / 45°F
Humidity 72%
Altimeter 30.22" Hg
Pressure 1023 hPa
Elevation 304
METAR KTOC 210435Z AUTO 31003KT 10SM CLR 12/07 A3022 RMK AO2 T01220065
Observed Flight Rules
Jan-21 @ 04:35 UTC
(16 minutes ago)
VFR
Wind Visibility
310° at 3 knots 10 miles
Clouds
  • Clear skies
Temperature Dewpoint
12°C / 54°F 7°C / 45°F
Humidity Altimeter Pressure
72% 30.22" Hg 1023 hPa